UAL1999 KEWR-KDEN
Flight info
| Callsign | UAL1999 |
|---|---|
| Flight time | 3h 39m |
| Altitude | 34000 |
| Route | ZIMMZ Q42 HOTEE Q480 AIR J80 MCI J24 OATHE CLASH5 |
| Aircraft | B739/M-SDE2E3FGHIRWXY/LB1 |
Departure
| Time | 2026-04-26 15:18 |
|---|---|
| Airport | Newark Liberty International Airport (KEWR) |
Arrival
| Time | 2026-04-26 18:58 |
|---|---|
| Airport | Denver International Airport (KDEN) |
| Time | Latitude | Longitude | Altitude | Speed | Heading |
|---|---|---|---|---|---|
| 2026-04-26 14:50 | 40.69526 | -74.17455 | 25 ft | 0 kts | 153° |
| 2026-04-26 15:08 | 40.69527 | -74.17456 | 12 ft | 2 kts | 153° |
| 2026-04-26 15:08 | 40.69549 | -74.17474 | 23 ft | 4 kts | 133° |
| 2026-04-26 15:08 | 40.69562 | -74.17502 | 21 ft | 4 kts | 97° |
| 2026-04-26 15:09 | 40.69559 | -74.17527 | 22 ft | 1 kts | 58° |
| 2026-04-26 15:09 | 40.69557 | -74.17532 | 23 ft | 0 kts | 58° |
| 2026-04-26 15:11 | 40.69573 | -74.17499 | 23 ft | 12 kts | 58° |
| 2026-04-26 15:11 | 40.69654 | -74.17385 | 22 ft | 21 kts | 39° |
| 2026-04-26 15:11 | 40.69740 | -74.17224 | 21 ft | 21 kts | 52° |
| 2026-04-26 15:12 | 40.69735 | -74.17067 | 21 ft | 21 kts | 150° |
| 2026-04-26 15:12 | 40.69600 | -74.17007 | 21 ft | 20 kts | 164° |
| 2026-04-26 15:12 | 40.69449 | -74.16975 | 21 ft | 25 kts | 176° |
| 2026-04-26 15:12 | 40.69276 | -74.17002 | 21 ft | 24 kts | 199° |
| 2026-04-26 15:13 | 40.69131 | -74.17094 | 21 ft | 23 kts | 206° |
| 2026-04-26 15:13 | 40.68990 | -74.17183 | 21 ft | 22 kts | 206° |
| 2026-04-26 15:13 | 40.68902 | -74.17239 | 21 ft | 22 kts | 206° |
| 2026-04-26 15:13 | 40.68725 | -74.17352 | 22 ft | 21 kts | 205° |
| 2026-04-26 15:14 | 40.68596 | -74.17433 | 22 ft | 20 kts | 205° |
| 2026-04-26 15:14 | 40.68470 | -74.17513 | 22 ft | 20 kts | 205° |
| 2026-04-26 15:14 | 40.68389 | -74.17564 | 22 ft | 20 kts | 205° |
| 2026-04-26 15:14 | 40.68256 | -74.17650 | 21 ft | 24 kts | 206° |
| 2026-04-26 15:15 | 40.68108 | -74.17743 | 21 ft | 23 kts | 205° |
| 2026-04-26 15:15 | 40.67966 | -74.17833 | 21 ft | 22 kts | 206° |
| 2026-04-26 15:15 | 40.67829 | -74.17920 | 22 ft | 22 kts | 205° |
| 2026-04-26 15:15 | 40.67702 | -74.18002 | 22 ft | 20 kts | 205° |
| 2026-04-26 15:16 | 40.67592 | -74.18029 | 21 ft | 17 kts | 147° |
| 2026-04-26 15:16 | 40.67591 | -74.17914 | 22 ft | 10 kts | 31° |
| 2026-04-26 15:16 | 40.67610 | -74.17899 | 21 ft | 0 kts | 27° |
| 2026-04-26 15:17 | 40.67629 | -74.17887 | 21 ft | 16 kts | 26° |
| 2026-04-26 15:18 | 40.67968 | -74.17673 | 19 ft | 90 kts | 25° |
| 2026-04-26 15:18 | 40.68726 | -74.17193 | 22 ft | 149 kts | 26° |
| 2026-04-26 15:18 | 40.69791 | -74.16519 | 234 ft | 179 kts | 26° |
| 2026-04-26 15:18 | 40.70934 | -74.15786 | 843 ft | 194 kts | 30° |
| 2026-04-26 15:19 | 40.72043 | -74.14555 | 1218 ft | 220 kts | 45° |
| 2026-04-26 15:19 | 40.73174 | -74.13152 | 1986 ft | 227 kts | 43° |
| 2026-04-26 15:19 | 40.74367 | -74.11708 | 2527 ft | 238 kts | 43° |
| 2026-04-26 15:19 | 40.75645 | -74.10335 | 3345 ft | 238 kts | 29° |
| 2026-04-26 15:20 | 40.77263 | -74.09830 | 4074 ft | 245 kts | 0° |
| 2026-04-26 15:20 | 40.78951 | -74.10343 | 4739 ft | 258 kts | 338° |
| 2026-04-26 15:20 | 40.80341 | -74.11891 | 5412 ft | 268 kts | 303° |
| 2026-04-26 15:20 | 40.80858 | -74.14240 | 6049 ft | 278 kts | 274° |
| 2026-04-26 15:21 | 40.80877 | -74.16824 | 6696 ft | 284 kts | 271° |
| 2026-04-26 15:21 | 40.80864 | -74.19440 | 7407 ft | 283 kts | 271° |
| 2026-04-26 15:21 | 40.80833 | -74.22041 | 8137 ft | 285 kts | 272° |
| 2026-04-26 15:21 | 40.80816 | -74.24651 | 8724 ft | 289 kts | 272° |
| 2026-04-26 15:22 | 40.80802 | -74.27314 | 9422 ft | 291 kts | 273° |
| 2026-04-26 15:22 | 40.80789 | -74.29996 | 10097 ft | 293 kts | 274° |
| 2026-04-26 15:22 | 40.80779 | -74.32740 | 10424 ft | 308 kts | 274° |
| 2026-04-26 15:22 | 40.80773 | -74.35667 | 10579 ft | 328 kts | 273° |
| 2026-04-26 15:23 | 40.80765 | -74.38771 | 10714 ft | 347 kts | 273° |
| 2026-04-26 15:23 | 40.80756 | -74.42051 | 10859 ft | 365 kts | 273° |
| 2026-04-26 15:23 | 40.80745 | -74.45427 | 11011 ft | 381 kts | 273° |
| 2026-04-26 15:23 | 40.80730 | -74.48964 | 11407 ft | 388 kts | 273° |
| 2026-04-26 15:24 | 40.80711 | -74.52532 | 12004 ft | 389 kts | 273° |
| 2026-04-26 15:24 | 40.80692 | -74.56100 | 12637 ft | 389 kts | 273° |
| 2026-04-26 15:24 | 40.80673 | -74.59674 | 13228 ft | 390 kts | 274° |
| 2026-04-26 15:24 | 40.80654 | -74.63262 | 13798 ft | 392 kts | 274° |
| 2026-04-26 15:25 | 40.80635 | -74.66868 | 14308 ft | 394 kts | 274° |
| 2026-04-26 15:25 | 40.80621 | -74.69316 | 14669 ft | 394 kts | 274° |
| 2026-04-26 15:25 | 40.80593 | -74.74118 | 15382 ft | 395 kts | 274° |
| 2026-04-26 15:25 | 40.80570 | -74.77750 | 15909 ft | 395 kts | 274° |
| 2026-04-26 15:26 | 40.80547 | -74.81378 | 16421 ft | 396 kts | 274° |
| 2026-04-26 15:26 | 40.80522 | -74.85031 | 16919 ft | 398 kts | 274° |
| 2026-04-26 15:26 | 40.80497 | -74.88649 | 17401 ft | 399 kts | 274° |
| 2026-04-26 15:26 | 40.80470 | -74.92326 | 17887 ft | 401 kts | 274° |
| 2026-04-26 15:27 | 40.80441 | -74.96016 | 18380 ft | 402 kts | 274° |
| 2026-04-26 15:27 | 40.80411 | -74.99713 | 18794 ft | 404 kts | 274° |
| 2026-04-26 15:27 | 40.80381 | -75.03437 | 19182 ft | 406 kts | 274° |
| 2026-04-26 15:27 | 40.80349 | -75.07176 | 19544 ft | 409 kts | 274° |
| 2026-04-26 15:28 | 40.80314 | -75.10932 | 19841 ft | 413 kts | 273° |
| 2026-04-26 15:28 | 40.80072 | -75.14754 | 20174 ft | 422 kts | 265° |
| 2026-04-26 15:28 | 40.79495 | -75.18574 | 20589 ft | 424 kts | 263° |
| 2026-04-26 15:28 | 40.78885 | -75.22383 | 20994 ft | 426 kts | 263° |
| 2026-04-26 15:29 | 40.78291 | -75.26186 | 21343 ft | 428 kts | 263° |
| 2026-04-26 15:29 | 40.77711 | -75.30055 | 21716 ft | 430 kts | 264° |
| 2026-04-26 15:29 | 40.76490 | -75.37842 | 22431 ft | 437 kts | 258° |
| 2026-04-26 15:30 | 40.74021 | -75.45262 | 23155 ft | 448 kts | 248° |
| 2026-04-26 15:30 | 40.72606 | -75.48951 | 23497 ft | 451 kts | 248° |
| 2026-04-26 15:30 | 40.71193 | -75.52655 | 23826 ft | 453 kts | 248° |
| 2026-04-26 15:31 | 40.69784 | -75.56387 | 24144 ft | 454 kts | 248° |
| 2026-04-26 15:31 | 40.66980 | -75.63881 | 24791 ft | 456 kts | 248° |
| 2026-04-26 15:31 | 40.65593 | -75.67596 | 25071 ft | 458 kts | 248° |
| 2026-04-26 15:32 | 40.63249 | -75.73869 | 25582 ft | 459 kts | 248° |
| 2026-04-26 15:32 | 40.61352 | -75.78931 | 25973 ft | 461 kts | 248° |
| 2026-04-26 15:32 | 40.59939 | -75.82693 | 26147 ft | 465 kts | 248° |
| 2026-04-26 15:33 | 40.58494 | -75.86511 | 26383 ft | 467 kts | 248° |
| 2026-04-26 15:33 | 40.57040 | -75.90322 | 26781 ft | 465 kts | 247° |
| 2026-04-26 15:33 | 40.55594 | -75.94101 | 27292 ft | 460 kts | 247° |
| 2026-04-26 15:33 | 40.54156 | -75.97855 | 27774 ft | 457 kts | 247° |
| 2026-04-26 15:34 | 40.52728 | -76.01585 | 28163 ft | 456 kts | 247° |
| 2026-04-26 15:34 | 40.51301 | -76.05311 | 28525 ft | 456 kts | 247° |
| 2026-04-26 15:34 | 40.49874 | -76.09036 | 28916 ft | 454 kts | 246° |
| 2026-04-26 15:34 | 40.48464 | -76.12713 | 29486 ft | 449 kts | 246° |
| 2026-04-26 15:35 | 40.47060 | -76.16365 | 29972 ft | 446 kts | 246° |
| 2026-04-26 15:35 | 40.45656 | -76.20019 | 30207 ft | 449 kts | 246° |
| 2026-04-26 15:35 | 40.44266 | -76.23634 | 30404 ft | 450 kts | 246° |
| 2026-04-26 15:35 | 40.42856 | -76.27292 | 30749 ft | 448 kts | 246° |
| 2026-04-26 15:36 | 40.41456 | -76.30918 | 31179 ft | 443 kts | 246° |
| 2026-04-26 15:36 | 40.40068 | -76.34508 | 31587 ft | 440 kts | 246° |
| 2026-04-26 15:36 | 40.38685 | -76.38085 | 31901 ft | 438 kts | 246° |
| 2026-04-26 15:36 | 40.37307 | -76.41645 | 32174 ft | 437 kts | 246° |
| 2026-04-26 15:37 | 40.35928 | -76.45205 | 32467 ft | 436 kts | 245° |
| 2026-04-26 15:37 | 40.34555 | -76.48738 | 32786 ft | 434 kts | 245° |
| 2026-04-26 15:37 | 40.33180 | -76.52246 | 33064 ft | 432 kts | 245° |
| 2026-04-26 15:37 | 40.31782 | -76.55757 | 33185 ft | 435 kts | 244° |
| 2026-04-26 15:38 | 40.30390 | -76.59228 | 33381 ft | 435 kts | 244° |
| 2026-04-26 15:38 | 40.28964 | -76.62774 | 33707 ft | 433 kts | 244° |
| 2026-04-26 15:38 | 40.27586 | -76.66200 | 34053 ft | 429 kts | 244° |
| 2026-04-26 15:38 | 40.26197 | -76.69657 | 34184 ft | 430 kts | 244° |
| 2026-04-26 15:39 | 40.23402 | -76.76612 | 34174 ft | 431 kts | 244° |
| 2026-04-26 15:39 | 40.21083 | -76.82376 | 34195 ft | 429 kts | 244° |
| 2026-04-26 15:40 | 40.17835 | -76.90429 | 34177 ft | 428 kts | 244° |
| 2026-04-26 15:40 | 40.15053 | -76.97311 | 34175 ft | 427 kts | 244° |
| 2026-04-26 15:41 | 40.12280 | -77.04154 | 34186 ft | 429 kts | 244° |
| 2026-04-26 15:41 | 40.09479 | -77.11049 | 34195 ft | 430 kts | 244° |
| 2026-04-26 15:42 | 40.06658 | -77.17980 | 34197 ft | 433 kts | 244° |
| 2026-04-26 15:42 | 40.03837 | -77.24895 | 34188 ft | 435 kts | 244° |
| 2026-04-26 15:43 | 40.00977 | -77.31893 | 34195 ft | 437 kts | 244° |
| 2026-04-26 15:44 | 39.96855 | -77.42529 | 34190 ft | 436 kts | 254° |
| 2026-04-26 15:44 | 39.95725 | -77.50235 | 34188 ft | 433 kts | 269° |
| 2026-04-26 15:44 | 39.95785 | -77.54105 | 34211 ft | 431 kts | 273° |
| 2026-04-26 15:45 | 39.96224 | -77.65848 | 34187 ft | 432 kts | 273° |
| 2026-04-26 15:46 | 39.96589 | -77.77552 | 34194 ft | 431 kts | 273° |
| 2026-04-26 15:46 | 39.96777 | -77.84097 | 34193 ft | 431 kts | 273° |
| 2026-04-26 15:47 | 39.97141 | -77.97086 | 34206 ft | 430 kts | 273° |
| 2026-04-26 15:48 | 39.97357 | -78.04891 | 34210 ft | 431 kts | 273° |
| 2026-04-26 15:48 | 39.97569 | -78.12715 | 34199 ft | 432 kts | 273° |
| 2026-04-26 15:49 | 39.97775 | -78.20511 | 34204 ft | 432 kts | 273° |
| 2026-04-26 15:49 | 39.97977 | -78.28361 | 34204 ft | 433 kts | 273° |
| 2026-04-26 15:50 | 39.98174 | -78.36231 | 34193 ft | 434 kts | 273° |
| 2026-04-26 15:50 | 39.98364 | -78.44050 | 34190 ft | 434 kts | 273° |
| 2026-04-26 15:51 | 39.98551 | -78.51921 | 34194 ft | 434 kts | 273° |
| 2026-04-26 15:51 | 39.98733 | -78.59815 | 34190 ft | 435 kts | 273° |
| 2026-04-26 15:52 | 39.98908 | -78.67658 | 34190 ft | 435 kts | 272° |
| 2026-04-26 15:52 | 39.99079 | -78.75546 | 34184 ft | 434 kts | 273° |
| 2026-04-26 15:53 | 39.99244 | -78.83421 | 34182 ft | 435 kts | 273° |
| 2026-04-26 15:53 | 39.99404 | -78.91299 | 34179 ft | 435 kts | 272° |
| 2026-04-26 15:54 | 39.99559 | -78.99194 | 34180 ft | 434 kts | 272° |
| 2026-04-26 15:54 | 39.99708 | -79.07037 | 34165 ft | 434 kts | 273° |
| 2026-04-26 15:55 | 39.99852 | -79.14921 | 34159 ft | 434 kts | 273° |
| 2026-04-26 15:55 | 39.99991 | -79.22763 | 34158 ft | 434 kts | 272° |
| 2026-04-26 15:56 | 40.00124 | -79.30647 | 34159 ft | 434 kts | 272° |
| 2026-04-26 15:56 | 40.00254 | -79.38522 | 34166 ft | 434 kts | 272° |
| 2026-04-26 15:57 | 40.00377 | -79.46402 | 34172 ft | 434 kts | 273° |
| 2026-04-26 15:57 | 40.00496 | -79.54289 | 34172 ft | 434 kts | 273° |
| 2026-04-26 15:58 | 40.00611 | -79.62168 | 34162 ft | 435 kts | 272° |
| 2026-04-26 15:58 | 40.00721 | -79.70057 | 34147 ft | 435 kts | 272° |
| 2026-04-26 15:59 | 40.00825 | -79.77941 | 34155 ft | 435 kts | 272° |
| 2026-04-26 15:59 | 40.00907 | -79.84498 | 34147 ft | 435 kts | 272° |
| 2026-04-26 16:00 | 40.01017 | -79.93661 | 34159 ft | 435 kts | 272° |
| 2026-04-26 16:00 | 40.01105 | -80.01555 | 34159 ft | 435 kts | 272° |
| 2026-04-26 16:01 | 40.01174 | -80.08116 | 34173 ft | 435 kts | 272° |
| 2026-04-26 16:01 | 40.01253 | -80.16019 | 34169 ft | 435 kts | 272° |
| 2026-04-26 16:02 | 40.01326 | -80.23925 | 34179 ft | 435 kts | 272° |
| 2026-04-26 16:02 | 40.01394 | -80.31839 | 34182 ft | 435 kts | 272° |
| 2026-04-26 16:03 | 40.01457 | -80.39736 | 34182 ft | 435 kts | 272° |
| 2026-04-26 16:03 | 40.01514 | -80.47634 | 34178 ft | 435 kts | 272° |
| 2026-04-26 16:04 | 40.01566 | -80.55488 | 34168 ft | 435 kts | 272° |
| 2026-04-26 16:04 | 40.01612 | -80.63403 | 34173 ft | 435 kts | 272° |
| 2026-04-26 16:05 | 40.01653 | -80.71299 | 34171 ft | 435 kts | 272° |
| 2026-04-26 16:05 | 40.01690 | -80.79197 | 34170 ft | 435 kts | 272° |
| 2026-04-26 16:06 | 40.01666 | -80.87095 | 34168 ft | 436 kts | 271° |
| 2026-04-26 16:06 | 40.01539 | -80.95004 | 34161 ft | 435 kts | 270° |
| 2026-04-26 16:07 | 40.01412 | -81.02865 | 34167 ft | 435 kts | 270° |
| 2026-04-26 16:07 | 40.01292 | -81.10762 | 34164 ft | 435 kts | 270° |
| 2026-04-26 16:08 | 40.01172 | -81.18653 | 34161 ft | 435 kts | 270° |
| 2026-04-26 16:08 | 40.01039 | -81.26558 | 34165 ft | 435 kts | 270° |
| 2026-04-26 16:09 | 40.00885 | -81.34455 | 34158 ft | 436 kts | 270° |
| 2026-04-26 16:09 | 40.00726 | -81.42354 | 34165 ft | 436 kts | 270° |
| 2026-04-26 16:10 | 40.00565 | -81.50210 | 34166 ft | 436 kts | 270° |
| 2026-04-26 16:10 | 40.00401 | -81.58121 | 34177 ft | 436 kts | 270° |
| 2026-04-26 16:11 | 40.00240 | -81.66027 | 34172 ft | 436 kts | 270° |
| 2026-04-26 16:11 | 40.00075 | -81.73944 | 34170 ft | 436 kts | 270° |
| 2026-04-26 16:12 | 39.99904 | -81.81853 | 34178 ft | 436 kts | 270° |
| 2026-04-26 16:12 | 39.99638 | -81.93698 | 34176 ft | 437 kts | 270° |
| 2026-04-26 16:13 | 39.99452 | -82.01626 | 34177 ft | 437 kts | 270° |
| 2026-04-26 16:13 | 39.99262 | -82.09558 | 34168 ft | 437 kts | 270° |
| 2026-04-26 16:14 | 39.99065 | -82.17481 | 34165 ft | 437 kts | 269° |
| 2026-04-26 16:15 | 39.98762 | -82.29334 | 34168 ft | 437 kts | 269° |
| 2026-04-26 16:15 | 39.98552 | -82.37271 | 34177 ft | 438 kts | 269° |
| 2026-04-26 16:16 | 39.98227 | -82.49179 | 34181 ft | 438 kts | 269° |
| 2026-04-26 16:16 | 39.98003 | -82.57145 | 34164 ft | 439 kts | 269° |
| 2026-04-26 16:17 | 39.97773 | -82.65101 | 34168 ft | 439 kts | 269° |
| 2026-04-26 16:17 | 39.97540 | -82.73017 | 34172 ft | 439 kts | 269° |
| 2026-04-26 16:18 | 39.97176 | -82.84974 | 34171 ft | 440 kts | 269° |
| 2026-04-26 16:19 | 39.96802 | -82.96924 | 34178 ft | 440 kts | 269° |
| 2026-04-26 16:20 | 39.96471 | -83.08898 | 34181 ft | 440 kts | 270° |
| 2026-04-26 16:20 | 39.96252 | -83.20851 | 34178 ft | 440 kts | 270° |
| 2026-04-26 16:21 | 39.95995 | -83.28769 | 34184 ft | 440 kts | 269° |
| 2026-04-26 16:21 | 39.95707 | -83.36727 | 34178 ft | 439 kts | 269° |
| 2026-04-26 16:22 | 39.95423 | -83.44684 | 34187 ft | 439 kts | 269° |
| 2026-04-26 16:22 | 39.95142 | -83.52638 | 34191 ft | 439 kts | 269° |
| 2026-04-26 16:23 | 39.94856 | -83.60586 | 34192 ft | 439 kts | 269° |
| 2026-04-26 16:23 | 39.94567 | -83.68526 | 34174 ft | 439 kts | 269° |
| 2026-04-26 16:24 | 39.94271 | -83.76471 | 34166 ft | 438 kts | 269° |
| 2026-04-26 16:24 | 39.93973 | -83.84349 | 34178 ft | 438 kts | 269° |
| 2026-04-26 16:25 | 39.93666 | -83.92292 | 34156 ft | 438 kts | 270° |
| 2026-04-26 16:25 | 39.93354 | -84.00229 | 34168 ft | 437 kts | 270° |
| 2026-04-26 16:26 | 39.93092 | -84.06819 | 34155 ft | 437 kts | 270° |
| 2026-04-26 16:26 | 39.92719 | -84.16003 | 34182 ft | 437 kts | 269° |
| 2026-04-26 16:27 | 39.92393 | -84.23925 | 34179 ft | 437 kts | 269° |
| 2026-04-26 16:27 | 39.92060 | -84.31846 | 34175 ft | 437 kts | 270° |
| 2026-04-26 16:28 | 39.91722 | -84.39766 | 34146 ft | 437 kts | 270° |
| 2026-04-26 16:28 | 39.91382 | -84.47632 | 34150 ft | 437 kts | 270° |
| 2026-04-26 16:29 | 39.91036 | -84.55542 | 34152 ft | 437 kts | 269° |
| 2026-04-26 16:29 | 39.90684 | -84.63461 | 34155 ft | 437 kts | 269° |
| 2026-04-26 16:30 | 39.90322 | -84.71365 | 34150 ft | 437 kts | 269° |
| 2026-04-26 16:30 | 39.89952 | -84.79269 | 34161 ft | 437 kts | 269° |
| 2026-04-26 16:31 | 39.89581 | -84.87118 | 34156 ft | 436 kts | 269° |
| 2026-04-26 16:31 | 39.89203 | -84.95013 | 34157 ft | 436 kts | 269° |
| 2026-04-26 16:32 | 39.88885 | -85.01576 | 34152 ft | 436 kts | 269° |
| 2026-04-26 16:32 | 39.88432 | -85.10783 | 34148 ft | 435 kts | 269° |
| 2026-04-26 16:33 | 39.88040 | -85.18642 | 34135 ft | 435 kts | 269° |
| 2026-04-26 16:33 | 39.87645 | -85.26443 | 34129 ft | 434 kts | 269° |
| 2026-04-26 16:34 | 39.87243 | -85.34292 | 34147 ft | 433 kts | 269° |
| 2026-04-26 16:34 | 39.86837 | -85.42112 | 34148 ft | 433 kts | 269° |
| 2026-04-26 16:35 | 39.86425 | -85.49935 | 34141 ft | 432 kts | 270° |
| 2026-04-26 16:35 | 39.86012 | -85.57683 | 34137 ft | 431 kts | 270° |
| 2026-04-26 16:36 | 39.85592 | -85.65469 | 34131 ft | 430 kts | 270° |
| 2026-04-26 16:36 | 39.85167 | -85.73245 | 34136 ft | 430 kts | 269° |
| 2026-04-26 16:37 | 39.84741 | -85.80954 | 34139 ft | 430 kts | 269° |
| 2026-04-26 16:37 | 39.84377 | -85.87464 | 34137 ft | 430 kts | 269° |
| 2026-04-26 16:38 | 39.83867 | -85.96472 | 34139 ft | 430 kts | 269° |
| 2026-04-26 16:38 | 39.83423 | -86.04225 | 34147 ft | 430 kts | 269° |
| 2026-04-26 16:39 | 39.82973 | -86.11990 | 34147 ft | 430 kts | 269° |
| 2026-04-26 16:39 | 39.82518 | -86.19750 | 34105 ft | 430 kts | 269° |
| 2026-04-26 16:40 | 39.82061 | -86.27459 | 34116 ft | 429 kts | 269° |
| 2026-04-26 16:40 | 39.81597 | -86.35191 | 34128 ft | 428 kts | 269° |
| 2026-04-26 16:41 | 39.81511 | -86.42905 | 34135 ft | 425 kts | 275° |
| 2026-04-26 16:41 | 39.81723 | -86.50582 | 34122 ft | 424 kts | 275° |
| 2026-04-26 16:42 | 39.81929 | -86.58269 | 34115 ft | 424 kts | 274° |
| 2026-04-26 16:42 | 39.82098 | -86.65892 | 34114 ft | 424 kts | 274° |
| 2026-04-26 16:43 | 39.82246 | -86.73553 | 34114 ft | 423 kts | 274° |
| 2026-04-26 16:43 | 39.82387 | -86.81218 | 34114 ft | 423 kts | 274° |
| 2026-04-26 16:44 | 39.82522 | -86.88870 | 34114 ft | 423 kts | 274° |
| 2026-04-26 16:44 | 39.82652 | -86.96529 | 34101 ft | 423 kts | 273° |
| 2026-04-26 16:45 | 39.82777 | -87.04144 | 34113 ft | 423 kts | 273° |
| 2026-04-26 16:45 | 39.82898 | -87.11805 | 34112 ft | 423 kts | 273° |
| 2026-04-26 16:46 | 39.83014 | -87.19464 | 34091 ft | 424 kts | 273° |
| 2026-04-26 16:46 | 39.83125 | -87.27133 | 34081 ft | 424 kts | 273° |
| 2026-04-26 16:47 | 39.83231 | -87.34812 | 34090 ft | 425 kts | 273° |
| 2026-04-26 16:47 | 39.83331 | -87.42460 | 34090 ft | 425 kts | 272° |
| 2026-04-26 16:48 | 39.83427 | -87.50151 | 34086 ft | 425 kts | 272° |
| 2026-04-26 16:48 | 39.83503 | -87.56537 | 34089 ft | 424 kts | 272° |
| 2026-04-26 16:49 | 39.83589 | -87.64213 | 34090 ft | 424 kts | 272° |
| 2026-04-26 16:49 | 39.83671 | -87.71885 | 34087 ft | 424 kts | 272° |
| 2026-04-26 16:50 | 39.83747 | -87.79549 | 34087 ft | 423 kts | 272° |
| 2026-04-26 16:50 | 39.83818 | -87.87213 | 34085 ft | 423 kts | 272° |
| 2026-04-26 16:51 | 39.83885 | -87.94859 | 34082 ft | 422 kts | 272° |
| 2026-04-26 16:51 | 39.83946 | -88.02506 | 34080 ft | 422 kts | 272° |
| 2026-04-26 16:52 | 39.83993 | -88.08862 | 34075 ft | 421 kts | 272° |
| 2026-04-26 16:52 | 39.84053 | -88.17711 | 34083 ft | 421 kts | 272° |
| 2026-04-26 16:53 | 39.84099 | -88.25326 | 34082 ft | 420 kts | 272° |
| 2026-04-26 16:53 | 39.84135 | -88.32938 | 34081 ft | 420 kts | 271° |
| 2026-04-26 16:54 | 39.84165 | -88.40534 | 34080 ft | 419 kts | 271° |
| 2026-04-26 16:54 | 39.84191 | -88.48083 | 34070 ft | 419 kts | 272° |
| 2026-04-26 16:55 | 39.84213 | -88.55665 | 34065 ft | 418 kts | 272° |
| 2026-04-26 16:55 | 39.84232 | -88.63241 | 34068 ft | 418 kts | 271° |
| 2026-04-26 16:56 | 39.84252 | -88.74545 | 34075 ft | 417 kts | 271° |
| 2026-04-26 16:57 | 39.84259 | -88.82098 | 34074 ft | 417 kts | 271° |
| 2026-04-26 16:57 | 39.84261 | -88.93440 | 34074 ft | 417 kts | 271° |
| 2026-04-26 16:58 | 39.84257 | -88.99707 | 34077 ft | 417 kts | 271° |
| 2026-04-26 16:59 | 39.84239 | -89.12305 | 34047 ft | 417 kts | 271° |
| 2026-04-26 17:00 | 39.84200 | -89.27354 | 34024 ft | 416 kts | 271° |
| 2026-04-26 17:00 | 39.84158 | -89.38636 | 34048 ft | 415 kts | 271° |
| 2026-04-26 17:01 | 39.84124 | -89.46153 | 34043 ft | 415 kts | 271° |
| 2026-04-26 17:01 | 39.84085 | -89.53660 | 34046 ft | 414 kts | 271° |
| 2026-04-26 17:02 | 39.84043 | -89.61149 | 34046 ft | 414 kts | 271° |
| 2026-04-26 17:02 | 39.83968 | -89.68582 | 34043 ft | 414 kts | 268° |
| 2026-04-26 17:03 | 39.83375 | -89.76041 | 34049 ft | 414 kts | 265° |
| 2026-04-26 17:03 | 39.82660 | -89.83497 | 34044 ft | 414 kts | 265° |
| 2026-04-26 17:04 | 39.81967 | -89.90898 | 34042 ft | 414 kts | 265° |
| 2026-04-26 17:04 | 39.81290 | -89.98345 | 34034 ft | 415 kts | 265° |
| 2026-04-26 17:05 | 39.80616 | -90.05805 | 34028 ft | 414 kts | 265° |
| 2026-04-26 17:05 | 39.79944 | -90.13206 | 34033 ft | 414 kts | 265° |
| 2026-04-26 17:06 | 39.79264 | -90.20636 | 34023 ft | 413 kts | 265° |
| 2026-04-26 17:06 | 39.78580 | -90.28047 | 34023 ft | 413 kts | 265° |
| 2026-04-26 17:07 | 39.77893 | -90.35447 | 34027 ft | 412 kts | 265° |
| 2026-04-26 17:07 | 39.77201 | -90.42845 | 34021 ft | 411 kts | 264° |
| 2026-04-26 17:08 | 39.76506 | -90.50225 | 34020 ft | 411 kts | 264° |
| 2026-04-26 17:08 | 39.75806 | -90.57605 | 34015 ft | 411 kts | 264° |
| 2026-04-26 17:09 | 39.75220 | -90.63750 | 34030 ft | 411 kts | 264° |
| 2026-04-26 17:09 | 39.74397 | -90.72311 | 34028 ft | 411 kts | 264° |
| 2026-04-26 17:10 | 39.73683 | -90.79689 | 34024 ft | 411 kts | 264° |
| 2026-04-26 17:10 | 39.72965 | -90.87057 | 34024 ft | 411 kts | 264° |
| 2026-04-26 17:11 | 39.72242 | -90.94436 | 33872 ft | 412 kts | 264° |
| 2026-04-26 17:11 | 39.71519 | -91.01764 | 33857 ft | 412 kts | 264° |
| 2026-04-26 17:12 | 39.70413 | -91.12846 | 33857 ft | 412 kts | 264° |
| 2026-04-26 17:13 | 39.69290 | -91.23919 | 33874 ft | 412 kts | 263° |
| 2026-04-26 17:13 | 39.68540 | -91.31264 | 34022 ft | 412 kts | 263° |
| 2026-04-26 17:14 | 39.68163 | -91.34948 | 34015 ft | 412 kts | 263° |
| 2026-04-26 17:14 | 39.67026 | -91.45985 | 34018 ft | 411 kts | 263° |
| 2026-04-26 17:15 | 39.65887 | -91.57008 | 34015 ft | 410 kts | 263° |
| 2026-04-26 17:16 | 39.65123 | -91.64355 | 34001 ft | 410 kts | 263° |
| 2026-04-26 17:16 | 39.64357 | -91.71682 | 33993 ft | 409 kts | 263° |
| 2026-04-26 17:17 | 39.63593 | -91.78940 | 33984 ft | 408 kts | 263° |
| 2026-04-26 17:17 | 39.62820 | -91.86245 | 33972 ft | 408 kts | 263° |
| 2026-04-26 17:18 | 39.62043 | -91.93537 | 33980 ft | 408 kts | 263° |
| 2026-04-26 17:18 | 39.61262 | -92.00823 | 33970 ft | 408 kts | 262° |
| 2026-04-26 17:19 | 39.60082 | -92.11749 | 33977 ft | 407 kts | 262° |
| 2026-04-26 17:19 | 39.59289 | -92.19038 | 33973 ft | 407 kts | 262° |
| 2026-04-26 17:20 | 39.58763 | -92.23849 | 33982 ft | 407 kts | 262° |
| 2026-04-26 17:20 | 39.57699 | -92.33526 | 33988 ft | 407 kts | 262° |
| 2026-04-26 17:21 | 39.56894 | -92.40797 | 33985 ft | 407 kts | 262° |
| 2026-04-26 17:21 | 39.56084 | -92.48065 | 33979 ft | 407 kts | 262° |
| 2026-04-26 17:22 | 39.55270 | -92.55333 | 33971 ft | 407 kts | 262° |
| 2026-04-26 17:22 | 39.54456 | -92.62560 | 33966 ft | 407 kts | 262° |
| 2026-04-26 17:23 | 39.53633 | -92.69822 | 33964 ft | 407 kts | 262° |
| 2026-04-26 17:23 | 39.52807 | -92.77066 | 33957 ft | 407 kts | 262° |
| 2026-04-26 17:24 | 39.51974 | -92.84332 | 33944 ft | 407 kts | 262° |
| 2026-04-26 17:24 | 39.51143 | -92.91539 | 33939 ft | 407 kts | 261° |
| 2026-04-26 17:25 | 39.50302 | -92.98802 | 33936 ft | 407 kts | 261° |
| 2026-04-26 17:25 | 39.49457 | -93.06045 | 33941 ft | 407 kts | 261° |
| 2026-04-26 17:26 | 39.48608 | -93.13296 | 33933 ft | 407 kts | 261° |
| 2026-04-26 17:26 | 39.47755 | -93.20540 | 33924 ft | 407 kts | 261° |
| 2026-04-26 17:27 | 39.46902 | -93.27742 | 33935 ft | 407 kts | 261° |
| 2026-04-26 17:27 | 39.46035 | -93.34979 | 33932 ft | 407 kts | 261° |
| 2026-04-26 17:28 | 39.45161 | -93.42221 | 33918 ft | 407 kts | 261° |
| 2026-04-26 17:28 | 39.44284 | -93.49452 | 33924 ft | 407 kts | 261° |
| 2026-04-26 17:29 | 39.43700 | -93.54245 | 33911 ft | 407 kts | 261° |
| 2026-04-26 17:29 | 39.42521 | -93.63883 | 33913 ft | 407 kts | 261° |
| 2026-04-26 17:30 | 39.41630 | -93.71124 | 33910 ft | 407 kts | 261° |
| 2026-04-26 17:30 | 39.40735 | -93.78357 | 33917 ft | 407 kts | 261° |
| 2026-04-26 17:31 | 39.39840 | -93.85550 | 33900 ft | 407 kts | 261° |
| 2026-04-26 17:31 | 39.38937 | -93.92776 | 33908 ft | 407 kts | 261° |
| 2026-04-26 17:32 | 39.38027 | -94.00016 | 33902 ft | 408 kts | 261° |
| 2026-04-26 17:32 | 39.37116 | -94.07224 | 33908 ft | 408 kts | 261° |
| 2026-04-26 17:33 | 39.36196 | -94.14474 | 33904 ft | 408 kts | 261° |
| 2026-04-26 17:34 | 39.34804 | -94.25364 | 33910 ft | 409 kts | 261° |
| 2026-04-26 17:34 | 39.33877 | -94.32574 | 33908 ft | 410 kts | 261° |
| 2026-04-26 17:35 | 39.32938 | -94.39840 | 33918 ft | 410 kts | 261° |
| 2026-04-26 17:35 | 39.31992 | -94.47121 | 33898 ft | 411 kts | 261° |
| 2026-04-26 17:36 | 39.31041 | -94.54401 | 33901 ft | 411 kts | 261° |
| 2026-04-26 17:36 | 39.30248 | -94.60451 | 33898 ft | 411 kts | 261° |
| 2026-04-26 17:37 | 39.29134 | -94.68913 | 33902 ft | 410 kts | 261° |
| 2026-04-26 17:37 | 39.28340 | -94.74948 | 33892 ft | 410 kts | 261° |
| 2026-04-26 17:38 | 39.27103 | -94.85855 | 33895 ft | 409 kts | 262° |
| 2026-04-26 17:38 | 39.26302 | -94.93107 | 33884 ft | 408 kts | 262° |
| 2026-04-26 17:39 | 39.25488 | -95.00339 | 33885 ft | 407 kts | 262° |
| 2026-04-26 17:39 | 39.24663 | -95.07569 | 33870 ft | 406 kts | 262° |
| 2026-04-26 17:40 | 39.23980 | -95.13510 | 33867 ft | 405 kts | 262° |
| 2026-04-26 17:40 | 39.23009 | -95.21904 | 33859 ft | 404 kts | 262° |
| 2026-04-26 17:41 | 39.22182 | -95.29017 | 33875 ft | 403 kts | 262° |
| 2026-04-26 17:41 | 39.21344 | -95.36179 | 33886 ft | 403 kts | 261° |
| 2026-04-26 17:42 | 39.20503 | -95.43330 | 33862 ft | 403 kts | 261° |
| 2026-04-26 17:42 | 39.19656 | -95.50493 | 33863 ft | 404 kts | 261° |
| 2026-04-26 17:43 | 39.18811 | -95.57608 | 33866 ft | 404 kts | 261° |
| 2026-04-26 17:43 | 39.17954 | -95.64772 | 33852 ft | 404 kts | 261° |
| 2026-04-26 17:44 | 39.17094 | -95.71938 | 33860 ft | 404 kts | 261° |
| 2026-04-26 17:44 | 39.16229 | -95.79097 | 33844 ft | 404 kts | 261° |
| 2026-04-26 17:45 | 39.15360 | -95.86258 | 33835 ft | 404 kts | 261° |
| 2026-04-26 17:45 | 39.14485 | -95.93422 | 33830 ft | 404 kts | 261° |
| 2026-04-26 17:46 | 39.13607 | -96.00575 | 33819 ft | 404 kts | 261° |
| 2026-04-26 17:46 | 39.12726 | -96.07721 | 33810 ft | 404 kts | 261° |
| 2026-04-26 17:47 | 39.11990 | -96.13664 | 33799 ft | 403 kts | 260° |
| 2026-04-26 17:47 | 39.10958 | -96.21942 | 33798 ft | 402 kts | 260° |
| 2026-04-26 17:48 | 39.10068 | -96.29047 | 33789 ft | 401 kts | 260° |
| 2026-04-26 17:48 | 39.09177 | -96.36126 | 33786 ft | 400 kts | 260° |
| 2026-04-26 17:49 | 39.08284 | -96.43186 | 33783 ft | 399 kts | 260° |
| 2026-04-26 17:49 | 39.07387 | -96.50243 | 33779 ft | 399 kts | 259° |
| 2026-04-26 17:50 | 39.06493 | -96.57236 | 33834 ft | 398 kts | 259° |
| 2026-04-26 17:50 | 39.05588 | -96.64284 | 33831 ft | 399 kts | 259° |
| 2026-04-26 17:51 | 39.04677 | -96.71336 | 33815 ft | 399 kts | 259° |
| 2026-04-26 17:51 | 39.03769 | -96.78346 | 33830 ft | 399 kts | 259° |
| 2026-04-26 17:52 | 39.02851 | -96.85398 | 33821 ft | 400 kts | 258° |
| 2026-04-26 17:52 | 39.01926 | -96.92457 | 33816 ft | 401 kts | 258° |
| 2026-04-26 17:53 | 39.00986 | -96.99546 | 33805 ft | 403 kts | 258° |
| 2026-04-26 17:54 | 38.99565 | -97.10189 | 33788 ft | 405 kts | 258° |
| 2026-04-26 17:54 | 38.98605 | -97.17340 | 33787 ft | 406 kts | 258° |
| 2026-04-26 17:55 | 38.97645 | -97.24464 | 33780 ft | 407 kts | 258° |
| 2026-04-26 17:55 | 38.96675 | -97.31630 | 33792 ft | 407 kts | 257° |
| 2026-04-26 17:56 | 38.95700 | -97.38800 | 33788 ft | 407 kts | 257° |
| 2026-04-26 17:57 | 38.93739 | -97.53120 | 33818 ft | 405 kts | 257° |
| 2026-04-26 17:57 | 38.92762 | -97.60207 | 33780 ft | 406 kts | 257° |
| 2026-04-26 17:58 | 38.91915 | -97.74947 | 33853 ft | 421 kts | 264° |
| 2026-04-26 17:59 | 38.91513 | -97.86222 | 33836 ft | 424 kts | 263° |
| 2026-04-26 17:59 | 38.91206 | -97.93797 | 33834 ft | 425 kts | 263° |
| 2026-04-26 18:00 | 38.90884 | -98.01377 | 33839 ft | 424 kts | 265° |
| 2026-04-26 18:00 | 38.90561 | -98.08898 | 33831 ft | 423 kts | 265° |
| 2026-04-26 18:01 | 38.90231 | -98.16434 | 33833 ft | 421 kts | 265° |
| 2026-04-26 18:01 | 38.89899 | -98.23920 | 33838 ft | 420 kts | 264° |
| 2026-04-26 18:02 | 38.89617 | -98.30179 | 33838 ft | 418 kts | 264° |
| 2026-04-26 18:02 | 38.89223 | -98.38835 | 33855 ft | 416 kts | 264° |
| 2026-04-26 18:03 | 38.88882 | -98.46197 | 33865 ft | 414 kts | 264° |
| 2026-04-26 18:03 | 38.88537 | -98.53547 | 33851 ft | 411 kts | 264° |
| 2026-04-26 18:04 | 38.88190 | -98.60860 | 33855 ft | 409 kts | 264° |
| 2026-04-26 18:05 | 38.87665 | -98.71714 | 33863 ft | 407 kts | 264° |
| 2026-04-26 18:05 | 38.87309 | -98.78961 | 33863 ft | 406 kts | 264° |
| 2026-04-26 18:06 | 38.86950 | -98.86188 | 33856 ft | 405 kts | 263° |
| 2026-04-26 18:06 | 38.86587 | -98.93388 | 33852 ft | 404 kts | 263° |
| 2026-04-26 18:07 | 38.86221 | -99.00580 | 33858 ft | 403 kts | 263° |
| 2026-04-26 18:07 | 38.85854 | -99.07701 | 33884 ft | 402 kts | 263° |
| 2026-04-26 18:08 | 38.85483 | -99.14825 | 33889 ft | 395 kts | 263° |
| 2026-04-26 18:08 | 38.85116 | -99.21794 | 33892 ft | 389 kts | 263° |
| 2026-04-26 18:09 | 38.84786 | -99.28749 | 33885 ft | 392 kts | 266° |
| 2026-04-26 18:09 | 38.84847 | -99.35711 | 33892 ft | 393 kts | 267° |
| 2026-04-26 18:10 | 38.84943 | -99.42727 | 33899 ft | 394 kts | 267° |
| 2026-04-26 18:10 | 38.85026 | -99.49757 | 33906 ft | 395 kts | 266° |
| 2026-04-26 18:11 | 38.85097 | -99.56806 | 33908 ft | 395 kts | 266° |
| 2026-04-26 18:11 | 38.85159 | -99.63856 | 33895 ft | 395 kts | 266° |
| 2026-04-26 18:12 | 38.85216 | -99.70854 | 33902 ft | 394 kts | 266° |
| 2026-04-26 18:12 | 38.85269 | -99.77890 | 33905 ft | 394 kts | 266° |
| 2026-04-26 18:13 | 38.85318 | -99.84928 | 33929 ft | 393 kts | 266° |
| 2026-04-26 18:13 | 38.85363 | -99.91933 | 33909 ft | 392 kts | 266° |
| 2026-04-26 18:14 | 38.85403 | -99.98920 | 33895 ft | 391 kts | 266° |
| 2026-04-26 18:14 | 38.85439 | -100.05837 | 33900 ft | 389 kts | 266° |
| 2026-04-26 18:15 | 38.85471 | -100.12783 | 33897 ft | 388 kts | 266° |
| 2026-04-26 18:15 | 38.85498 | -100.19714 | 33899 ft | 388 kts | 266° |
| 2026-04-26 18:16 | 38.85521 | -100.26645 | 33911 ft | 387 kts | 266° |
| 2026-04-26 18:16 | 38.85549 | -100.36957 | 33888 ft | 387 kts | 266° |
| 2026-04-26 18:17 | 38.85562 | -100.43847 | 33887 ft | 386 kts | 266° |
| 2026-04-26 18:17 | 38.85571 | -100.50730 | 33889 ft | 386 kts | 266° |
| 2026-04-26 18:18 | 38.85576 | -100.57633 | 33920 ft | 386 kts | 265° |
| 2026-04-26 18:18 | 38.85577 | -100.64517 | 33899 ft | 386 kts | 265° |
| 2026-04-26 18:19 | 38.85574 | -100.71364 | 33887 ft | 385 kts | 265° |
| 2026-04-26 18:19 | 38.85567 | -100.78237 | 33899 ft | 386 kts | 265° |
| 2026-04-26 18:20 | 38.85556 | -100.85137 | 33893 ft | 386 kts | 265° |
| 2026-04-26 18:20 | 38.85546 | -100.89709 | 33885 ft | 387 kts | 265° |
| 2026-04-26 18:21 | 38.85521 | -100.98951 | 33881 ft | 388 kts | 265° |
| 2026-04-26 18:21 | 38.85498 | -101.05830 | 33873 ft | 388 kts | 265° |
| 2026-04-26 18:22 | 38.85471 | -101.12747 | 33875 ft | 388 kts | 265° |
| 2026-04-26 18:22 | 38.85440 | -101.19672 | 33874 ft | 388 kts | 265° |
| 2026-04-26 18:23 | 38.85404 | -101.26590 | 33874 ft | 388 kts | 265° |
| 2026-04-26 18:23 | 38.85365 | -101.33512 | 33876 ft | 388 kts | 265° |
| 2026-04-26 18:24 | 38.85321 | -101.40425 | 33870 ft | 387 kts | 265° |
| 2026-04-26 18:24 | 38.85274 | -101.47289 | 33872 ft | 386 kts | 265° |
| 2026-04-26 18:25 | 38.85222 | -101.54193 | 33871 ft | 386 kts | 265° |
| 2026-04-26 18:25 | 38.85167 | -101.61044 | 33872 ft | 386 kts | 265° |
| 2026-04-26 18:26 | 38.85108 | -101.67928 | 33904 ft | 385 kts | 265° |
| 2026-04-26 18:26 | 38.85045 | -101.74804 | 33883 ft | 384 kts | 265° |
| 2026-04-26 18:27 | 38.84977 | -101.81670 | 33866 ft | 384 kts | 265° |
| 2026-04-26 18:27 | 38.84916 | -101.87351 | 33869 ft | 383 kts | 265° |
| 2026-04-26 18:28 | 38.84839 | -101.94183 | 33859 ft | 383 kts | 265° |
| 2026-04-26 18:28 | 38.84758 | -102.01016 | 33857 ft | 383 kts | 265° |
| 2026-04-26 18:29 | 38.84674 | -102.07842 | 33849 ft | 383 kts | 264° |
| 2026-04-26 18:29 | 38.84586 | -102.14673 | 33844 ft | 383 kts | 264° |
| 2026-04-26 18:30 | 38.84496 | -102.21458 | 33837 ft | 383 kts | 264° |
| 2026-04-26 18:30 | 38.84904 | -102.28313 | 33834 ft | 394 kts | 279° |
| 2026-04-26 18:31 | 38.86446 | -102.35056 | 33827 ft | 394 kts | 279° |
| 2026-04-26 18:31 | 38.87949 | -102.41818 | 33832 ft | 394 kts | 278° |
| 2026-04-26 18:32 | 38.89427 | -102.48585 | 33807 ft | 394 kts | 278° |
| 2026-04-26 18:32 | 38.90888 | -102.55316 | 33821 ft | 395 kts | 278° |
| 2026-04-26 18:33 | 38.92361 | -102.62125 | 33813 ft | 396 kts | 278° |
| 2026-04-26 18:33 | 38.93833 | -102.68954 | 33799 ft | 397 kts | 278° |
| 2026-04-26 18:34 | 38.95305 | -102.75799 | 33796 ft | 397 kts | 278° |
| 2026-04-26 18:34 | 38.96767 | -102.82616 | 33797 ft | 399 kts | 278° |
| 2026-04-26 18:35 | 38.98240 | -102.89510 | 33405 ft | 406 kts | 278° |
| 2026-04-26 18:35 | 38.98993 | -102.93042 | 32759 ft | 409 kts | 278° |
| 2026-04-26 18:35 | 38.99750 | -102.96571 | 31993 ft | 408 kts | 279° |
| 2026-04-26 18:36 | 39.00504 | -103.00089 | 31207 ft | 409 kts | 279° |
| 2026-04-26 18:36 | 39.01252 | -103.03582 | 30725 ft | 402 kts | 279° |
| 2026-04-26 18:36 | 39.01990 | -103.07041 | 30136 ft | 399 kts | 279° |
| 2026-04-26 18:36 | 39.02712 | -103.10431 | 29570 ft | 396 kts | 279° |
| 2026-04-26 18:37 | 39.03436 | -103.13837 | 28999 ft | 392 kts | 279° |
| 2026-04-26 18:37 | 39.04152 | -103.17202 | 28445 ft | 387 kts | 280° |
| 2026-04-26 18:37 | 39.05180 | -103.20427 | 27922 ft | 394 kts | 294° |
| 2026-04-26 18:37 | 39.06619 | -103.23416 | 27436 ft | 392 kts | 295° |
| 2026-04-26 18:38 | 39.08054 | -103.26349 | 26899 ft | 391 kts | 295° |
| 2026-04-26 18:38 | 39.09493 | -103.29313 | 26388 ft | 391 kts | 295° |
| 2026-04-26 18:38 | 39.10929 | -103.32307 | 25901 ft | 398 kts | 295° |
| 2026-04-26 18:38 | 39.12392 | -103.35386 | 25382 ft | 405 kts | 295° |
| 2026-04-26 18:39 | 39.13862 | -103.38489 | 24855 ft | 404 kts | 295° |
| 2026-04-26 18:39 | 39.15322 | -103.41572 | 24338 ft | 401 kts | 295° |
| 2026-04-26 18:39 | 39.16771 | -103.44636 | 23827 ft | 398 kts | 295° |
| 2026-04-26 18:39 | 39.18202 | -103.47670 | 23316 ft | 396 kts | 295° |
| 2026-04-26 18:40 | 39.19631 | -103.50705 | 22729 ft | 394 kts | 295° |
| 2026-04-26 18:40 | 39.21028 | -103.53671 | 22229 ft | 390 kts | 295° |
| 2026-04-26 18:40 | 39.22431 | -103.56654 | 21718 ft | 387 kts | 295° |
| 2026-04-26 18:40 | 39.23819 | -103.59609 | 21228 ft | 384 kts | 296° |
| 2026-04-26 18:41 | 39.25195 | -103.62541 | 20719 ft | 381 kts | 296° |
| 2026-04-26 18:41 | 39.26564 | -103.65462 | 20217 ft | 379 kts | 296° |
| 2026-04-26 18:41 | 39.27915 | -103.68342 | 20044 ft | 367 kts | 296° |
| 2026-04-26 18:41 | 39.29241 | -103.71124 | 19714 ft | 362 kts | 297° |
| 2026-04-26 18:42 | 39.30645 | -103.73831 | 19274 ft | 361 kts | 299° |
| 2026-04-26 18:42 | 39.32059 | -103.76463 | 18841 ft | 360 kts | 299° |
| 2026-04-26 18:42 | 39.33485 | -103.79110 | 18390 ft | 358 kts | 299° |
| 2026-04-26 18:42 | 39.34900 | -103.81752 | 17904 ft | 357 kts | 299° |
| 2026-04-26 18:43 | 39.36307 | -103.84398 | 17403 ft | 355 kts | 299° |
| 2026-04-26 18:43 | 39.37700 | -103.87029 | 16865 ft | 353 kts | 299° |
| 2026-04-26 18:43 | 39.39069 | -103.89622 | 16636 ft | 345 kts | 299° |
| 2026-04-26 18:43 | 39.40399 | -103.92143 | 16530 ft | 332 kts | 298° |
| 2026-04-26 18:44 | 39.41684 | -103.94582 | 16351 ft | 324 kts | 299° |
| 2026-04-26 18:44 | 39.42932 | -103.96954 | 16212 ft | 314 kts | 299° |
| 2026-04-26 18:44 | 39.43882 | -103.99401 | 16023 ft | 297 kts | 280° |
| 2026-04-26 18:44 | 39.44126 | -104.01975 | 15692 ft | 289 kts | 266° |
| 2026-04-26 18:45 | 39.44055 | -104.04558 | 15364 ft | 286 kts | 264° |
| 2026-04-26 18:45 | 39.43949 | -104.07128 | 15011 ft | 285 kts | 264° |
| 2026-04-26 18:45 | 39.43841 | -104.09679 | 14662 ft | 284 kts | 264° |
| 2026-04-26 18:45 | 39.43739 | -104.12222 | 14319 ft | 283 kts | 264° |
| 2026-04-26 18:46 | 39.43643 | -104.14730 | 13972 ft | 282 kts | 264° |
| 2026-04-26 18:46 | 39.43550 | -104.17262 | 13670 ft | 279 kts | 264° |
| 2026-04-26 18:46 | 39.43461 | -104.19757 | 13358 ft | 277 kts | 264° |
| 2026-04-26 18:46 | 39.43375 | -104.22197 | 13268 ft | 267 kts | 264° |
| 2026-04-26 18:47 | 39.43290 | -104.24563 | 13127 ft | 258 kts | 264° |
| 2026-04-26 18:47 | 39.43208 | -104.26851 | 12989 ft | 250 kts | 263° |
| 2026-04-26 18:47 | 39.43128 | -104.29057 | 12711 ft | 247 kts | 263° |
| 2026-04-26 18:47 | 39.43047 | -104.31258 | 12463 ft | 243 kts | 263° |
| 2026-04-26 18:48 | 39.42967 | -104.33438 | 12186 ft | 241 kts | 263° |
| 2026-04-26 18:48 | 39.42888 | -104.35586 | 11923 ft | 238 kts | 264° |
| 2026-04-26 18:48 | 39.42809 | -104.37720 | 11680 ft | 237 kts | 264° |
| 2026-04-26 18:48 | 39.42730 | -104.39867 | 11417 ft | 239 kts | 264° |
| 2026-04-26 18:49 | 39.42649 | -104.42023 | 11156 ft | 241 kts | 264° |
| 2026-04-26 18:49 | 39.42570 | -104.44201 | 10894 ft | 244 kts | 264° |
| 2026-04-26 18:49 | 39.42497 | -104.46384 | 10648 ft | 247 kts | 265° |
| 2026-04-26 18:49 | 39.42422 | -104.48618 | 10392 ft | 250 kts | 265° |
| 2026-04-26 18:50 | 39.42370 | -104.50885 | 10140 ft | 254 kts | 272° |
| 2026-04-26 18:50 | 39.42961 | -104.53045 | 9853 ft | 259 kts | 303° |
| 2026-04-26 18:50 | 39.44029 | -104.54924 | 9573 ft | 260 kts | 304° |
| 2026-04-26 18:50 | 39.45095 | -104.56803 | 9276 ft | 259 kts | 305° |
| 2026-04-26 18:51 | 39.46154 | -104.58671 | 9060 ft | 255 kts | 305° |
| 2026-04-26 18:51 | 39.47304 | -104.60433 | 9027 ft | 257 kts | 311° |
| 2026-04-26 18:51 | 39.48526 | -104.62111 | 8998 ft | 255 kts | 314° |
| 2026-04-26 18:51 | 39.49973 | -104.63341 | 8987 ft | 253 kts | 343° |
| 2026-04-26 18:52 | 39.51670 | -104.63954 | 9028 ft | 256 kts | 344° |
| 2026-04-26 18:52 | 39.52841 | -104.64363 | 9021 ft | 259 kts | 348° |
| 2026-04-26 18:52 | 39.55219 | -104.64485 | 9018 ft | 259 kts | 0° |
| 2026-04-26 18:52 | 39.57035 | -104.64450 | 9028 ft | 261 kts | 359° |
| 2026-04-26 18:53 | 39.58858 | -104.64434 | 9045 ft | 262 kts | 359° |
| 2026-04-26 18:53 | 39.60701 | -104.64417 | 9050 ft | 266 kts | 360° |
| 2026-04-26 18:53 | 39.62536 | -104.64399 | 9040 ft | 266 kts | 360° |
| 2026-04-26 18:53 | 39.64378 | -104.64379 | 8878 ft | 267 kts | 360° |
| 2026-04-26 18:54 | 39.66190 | -104.64359 | 8735 ft | 254 kts | 360° |
| 2026-04-26 18:54 | 39.67934 | -104.64339 | 8418 ft | 243 kts | 360° |
| 2026-04-26 18:54 | 39.69593 | -104.64320 | 8085 ft | 231 kts | 0° |
| 2026-04-26 18:54 | 39.71155 | -104.64303 | 7796 ft | 218 kts | 0° |
| 2026-04-26 18:55 | 39.72634 | -104.64286 | 7492 ft | 207 kts | 0° |
| 2026-04-26 18:55 | 39.74030 | -104.64270 | 7235 ft | 194 kts | 1° |
| 2026-04-26 18:55 | 39.75325 | -104.64255 | 6958 ft | 182 kts | 1° |
| 2026-04-26 18:55 | 39.76592 | -104.64241 | 6717 ft | 181 kts | 1° |
| 2026-04-26 18:56 | 39.77845 | -104.64227 | 6482 ft | 178 kts | 1° |
| 2026-04-26 18:56 | 39.79069 | -104.64212 | 6317 ft | 172 kts | 1° |
| 2026-04-26 18:56 | 39.80246 | -104.64202 | 6092 ft | 171 kts | 1° |
| 2026-04-26 18:56 | 39.81449 | -104.64174 | 5802 ft | 173 kts | 1° |
| 2026-04-26 18:57 | 39.82632 | -104.64162 | 5533 ft | 168 kts | 359° |
| 2026-04-26 18:57 | 39.83386 | -104.64161 | 5389 ft | 159 kts | 360° |
| 2026-04-26 18:57 | 39.84752 | -104.64148 | 5364 ft | 124 kts | 1° |
| 2026-04-26 18:57 | 39.85454 | -104.64158 | 5364 ft | 77 kts | 349° |
| 2026-04-26 18:58 | 39.85792 | -104.64359 | 5362 ft | 44 kts | 333° |
| 2026-04-26 18:58 | 39.86044 | -104.64538 | 5363 ft | 39 kts | 331° |
| 2026-04-26 18:58 | 39.86266 | -104.64704 | 5363 ft | 35 kts | 330° |
| 2026-04-26 18:58 | 39.86455 | -104.64849 | 5362 ft | 29 kts | 319° |
| 2026-04-26 18:59 | 39.86494 | -104.65091 | 5363 ft | 27 kts | 270° |
| 2026-04-26 18:59 | 39.86496 | -104.65332 | 5365 ft | 26 kts | 271° |
| 2026-04-26 18:59 | 39.86500 | -104.65555 | 5365 ft | 24 kts | 271° |
| 2026-04-26 18:59 | 39.86500 | -104.65766 | 5363 ft | 23 kts | 270° |
| 2026-04-26 19:00 | 39.86501 | -104.65964 | 5365 ft | 16 kts | 271° |
| 2026-04-26 19:00 | 39.86502 | -104.66090 | 5364 ft | 14 kts | 270° |
| 2026-04-26 19:00 | 39.86483 | -104.66205 | 5365 ft | 14 kts | 226° |
| 2026-04-26 19:00 | 39.86393 | -104.66225 | 5363 ft | 14 kts | 180° |
| 2026-04-26 19:01 | 39.86283 | -104.66226 | 5365 ft | 16 kts | 181° |
| 2026-04-26 19:01 | 39.86173 | -104.66228 | 5364 ft | 15 kts | 180° |
| 2026-04-26 19:01 | 39.86065 | -104.66229 | 5364 ft | 17 kts | 179° |
| 2026-04-26 19:01 | 39.85941 | -104.66230 | 5364 ft | 18 kts | 180° |
| 2026-04-26 19:02 | 39.85819 | -104.66231 | 5363 ft | 17 kts | 180° |
| 2026-04-26 19:02 | 39.85698 | -104.66232 | 5364 ft | 17 kts | 180° |
| 2026-04-26 19:02 | 39.85577 | -104.66233 | 5364 ft | 22 kts | 181° |
| 2026-04-26 19:02 | 39.85461 | -104.66234 | 5361 ft | 25 kts | 180° |
| 2026-04-26 19:03 | 39.85292 | -104.66345 | 5365 ft | 23 kts | 270° |
| 2026-04-26 19:03 | 39.85282 | -104.66548 | 5364 ft | 22 kts | 253° |
| 2026-04-26 19:03 | 39.85276 | -104.66745 | 5365 ft | 22 kts | 271° |
| 2026-04-26 19:03 | 39.85274 | -104.66938 | 5365 ft | 21 kts | 270° |
| 2026-04-26 19:04 | 39.85275 | -104.67125 | 5364 ft | 20 kts | 271° |
| 2026-04-26 19:04 | 39.85277 | -104.67266 | 5364 ft | 8 kts | 269° |
| 2026-04-26 19:04 | 39.85278 | -104.67333 | 5365 ft | 5 kts | 288° |
| 2026-04-26 19:04 | 39.85304 | -104.67335 | 5365 ft | 4 kts | 27° |
| 2026-04-26 19:05 | 39.85335 | -104.67308 | 5363 ft | 0 kts | 33° |